Time;durP1;ratioP1;P1;durP2;ratioP2;P2;SDS_P1;SDS_P2;PMS_P1;PMS_P2;Temp;Humidity;BMP_temperature;BMP_pressure;BME280_temperature;BME280_humidity;BME280_pressure;Samples;Min_cycle;Max_cycle;Signal;HPM_P1;HPM_P2
2022/03/02 00:01:16;;;;;;;7.25;3.75;;;6.20;43.10;;;;;;5092965;28;20056;-69
2022/03/02 00:03:43;;;;;;;9.48;3.50;;;6.20;43.20;;;;;;5093249;28;20414;-68
2022/03/02 00:06:11;;;;;;;6.93;3.45;;;6.20;43.50;;;;;;5092797;28;20036;-64
2022/03/02 00:08:40;;;;;;;6.20;3.70;;;6.20;43.50;;;;;;5092932;28;20036;-67
2022/03/02 00:11:06;;;;;;;9.95;3.60;;;6.20;43.60;;;;;;5091966;28;20036;-65
2022/03/02 00:13:32;;;;;;;7.15;3.63;;;6.10;43.60;;;;;;5091949;28;20048;-64
2022/03/02 00:15:59;;;;;;;6.13;3.80;;;6.10;43.30;;;;;;5093050;28;20031;-74
2022/03/02 00:18:24;;;;;;;7.03;3.42;;;6.20;43.90;;;;;;5093049;28;20027;-68
2022/03/02 00:20:50;;;;;;;8.10;3.97;;;6.10;43.60;;;;;;5093058;28;20077;-67
2022/03/02 00:23:17;;;;;;;6.72;3.65;;;6.20;43.90;;;;;;5092732;28;20477;-64
2022/03/02 00:25:43;;;;;;;6.90;3.58;;;6.20;44.00;;;;;;5092664;28;20029;-65
2022/03/02 00:28:09;;;;;;;6.50;3.42;;;6.20;44.00;;;;;;5092603;28;20447;-63
2022/03/02 00:30:35;;;;;;;6.47;3.90;;;6.10;43.80;;;;;;5092694;28;20024;-65
2022/03/02 00:33:04;;;;;;;8.32;3.80;;;6.00;43.80;;;;;;5093649;28;20031;-77
2022/03/02 00:35:29;;;;;;;7.30;3.75;;;6.00;44.00;;;;;;5090451;28;20040;-71
2022/03/02 00:37:58;;;;;;;6.65;3.60;;;6.00;44.20;;;;;;5092839;28;20527;-64
2022/03/02 00:40:29;;;;;;;7.15;3.58;;;6.00;44.00;;;;;;5092817;28;20141;-69
2022/03/02 00:42:55;;;;;;;9.90;3.88;;;5.90;44.00;;;;;;5090705;28;20115;-64
2022/03/02 00:45:22;;;;;;;9.43;4.28;;;5.90;44.30;;;;;;5091413;28;20157;-64
2022/03/02 00:47:52;;;;;;;7.75;3.80;;;5.90;44.40;;;;;;5092355;28;20096;-65
2022/03/02 00:50:19;;;;;;;7.20;4.22;;;5.90;44.60;;;;;;5092521;28;20028;-73
2022/03/02 00:52:45;;;;;;;7.30;3.90;;;5.90;44.50;;;;;;5092158;28;20062;-67
2022/03/02 00:55:11;;;;;;;8.23;3.45;;;5.90;44.70;;;;;;5092774;28;20031;-65
2022/03/02 00:57:37;;;;;;;6.47;3.33;;;5.90;44.70;;;;;;5100512;28;20028;-64
2022/03/02 01:00:06;;;;;;;5.60;3.40;;;5.90;44.80;;;;;;5098864;28;20040;-64
2022/03/02 01:02:32;;;;;;;7.75;4.00;;;6.00;44.70;;;;;;5093533;28;20048;-77
2022/03/02 01:05:01;;;;;;;11.70;3.80;;;5.90;44.60;;;;;;5092752;28;20058;-67
2022/03/02 01:07:27;;;;;;;7.32;4.25;;;5.90;45.00;;;;;;5091044;28;20084;-69
2022/03/02 01:09:53;;;;;;;6.07;3.70;;;5.80;45.10;;;;;;5092260;28;20024;-65
2022/03/02 01:12:19;;;;;;;6.60;3.88;;;5.80;45.30;;;;;;5092551;28;20101;-64
2022/03/02 01:14:46;;;;;;;8.55;3.72;;;5.80;45.40;;;;;;5095108;28;20020;-67
2022/03/02 01:17:11;;;;;;;7.15;3.97;;;5.80;45.40;;;;;;5096068;28;20020;-64
2022/03/02 01:19:39;;;;;;;8.45;4.00;;;5.90;45.50;;;;;;5095888;28;20016;-70
2022/03/02 01:22:07;;;;;;;6.72;3.50;;;5.80;45.50;;;;;;5096078;28;20457;-67
2022/03/02 01:24:34;;;;;;;6.88;3.92;;;5.80;44.80;;;;;;5095754;28;20111;-64
2022/03/02 01:27:04;;;;;;;6.25;3.70;;;5.80;45.60;;;;;;5095970;28;20111;-68
2022/03/02 01:29:34;;;;;;;5.72;3.53;;;5.80;45.20;;;;;;5093999;28;20077;-67
2022/03/02 01:32:06;;;;;;;6.05;3.63;;;5.70;45.70;;;;;;5095251;28;20035;-71
2022/03/02 01:34:32;;;;;;;7.55;3.85;;;5.70;45.30;;;;;;5096138;28;20072;-67
2022/03/02 01:36:59;;;;;;;11.60;4.10;;;5.60;45.70;;;;;;5095749;28;20414;-67
2022/03/02 01:39:25;;;;;;;6.32;3.85;;;5.60;46.00;;;;;;5094493;28;20028;-69
2022/03/02 01:41:55;;;;;;;7.03;4.10;;;5.60;46.30;;;;;;5095882;28;20154;-66
2022/03/02 01:44:29;;;;;;;6.65;3.70;;;5.60;46.80;;;;;;5094357;28;20039;-73
2022/03/02 01:46:56;;;;;;;6.70;3.70;;;5.50;46.30;;;;;;5095592;28;20044;-73
2022/03/02 01:49:24;;;;;;;7.72;4.30;;;5.40;46.60;;;;;;5095590;28;20113;-67
2022/03/02 01:51:57;;;;;;;8.32;4.10;;;5.40;46.70;;;;;;5094417;28;20028;-72
2022/03/02 01:54:25;;;;;;;6.88;3.95;;;5.40;46.60;;;;;;5095764;28;20024;-80
2022/03/02 01:56:52;;;;;;;9.10;4.18;;;5.40;46.80;;;;;;5093435;28;20051;-79
2022/03/02 01:59:20;;;;;;;7.47;3.60;;;5.40;46.80;;;;;;5105915;28;20099;-71
2022/03/02 02:01:48;;;;;;;6.38;3.78;;;5.40;46.90;;;;;;5106817;28;20472;-71
2022/03/02 02:04:13;;;;;;;9.40;4.20;;;5.40;47.00;;;;;;5105202;28;20028;-70
2022/03/02 02:06:39;;;;;;;7.03;3.88;;;5.40;46.90;;;;;;5096537;28;20378;-73
2022/03/02 02:09:09;;;;;;;8.75;4.30;;;5.40;46.80;;;;;;5094968;28;20477;-79
2022/03/02 02:11:43;;;;;;;9.45;4.47;;;5.30;46.60;;;;;;5095066;28;20051;-84
2022/03/02 02:14:08;;;;;;;;;;;5.30;47.30;;;;;;5096625;28;20036;-72
2022/03/02 02:16:34;;;;;;;6.45;4.25;;;5.30;47.20;;;;;;5095398;28;19904;-76
2022/03/02 02:19:00;;;;;;;8.82;4.22;;;5.30;47.10;;;;;;5093668;28;20036;-76
2022/03/02 02:21:28;;;;;;;6.45;3.95;;;5.30;47.10;;;;;;5094606;28;20040;-73
2022/03/02 02:23:57;;;;;;;8.18;3.88;;;5.30;46.90;;;;;;5095219;28;20477;-78
2022/03/02 02:26:25;;;;;;;9.55;4.45;;;5.20;47.40;;;;;;5095017;28;20039;-74
2022/03/02 02:28:58;;;;;;;8.73;4.40;;;5.20;47.60;;;;;;5092138;28;20106;-75
2022/03/02 02:31:28;;;;;;;6.60;3.95;;;5.20;47.60;;;;;;5095032;28;20073;-78
2022/03/02 02:33:55;;;;;;;8.75;4.53;;;5.20;47.80;;;;;;5094931;28;20048;-72
2022/03/02 02:36:21;;;;;;;7.32;4.00;;;5.20;48.10;;;;;;5095102;28;20024;-70
2022/03/02 02:38:46;;;;;;;8.27;4.30;;;5.10;47.40;;;;;;5094698;28;20435;-81
2022/03/02 02:41:15;;;;;;;9.43;4.47;;;5.10;48.00;;;;;;5093339;28;20032;-83
2022/03/02 02:43:45;;;;;;;9.13;4.30;;;5.10;48.00;;;;;;5093824;28;20039;-75
2022/03/02 02:46:12;;;;;;;7.35;4.43;;;5.00;47.80;;;;;;5095622;28;20032;-80
2022/03/02 02:48:39;;;;;;;8.95;4.25;;;5.10;47.90;;;;;;5096947;28;20496;-78
2022/03/02 02:51:06;;;;;;;7.70;4.25;;;5.10;47.90;;;;;;5095706;28;20028;-78
2022/03/02 02:53:33;;;;;;;7.43;4.40;;;5.10;47.80;;;;;;5096257;28;20039;-74
2022/03/02 02:56:00;;;;;;;7.43;3.92;;;5.10;47.90;;;;;;5096570;28;20020;-83
2022/03/02 02:58:26;;;;;;;8.57;3.83;;;5.10;47.90;;;;;;5094976;28;20077;-70
2022/03/02 03:00:52;;;;;;;6.28;3.72;;;5.10;48.10;;;;;;5094331;28;20911;-75
2022/03/02 03:03:18;;;;;;;7.25;4.28;;;5.10;48.10;;;;;;5094874;28;20028;-81
2022/03/02 03:05:53;;;;;;;7.55;4.00;;;5.10;48.10;;;;;;5093049;28;20034;-74
2022/03/02 03:08:18;;;;;;;6.32;4.00;;;5.10;48.30;;;;;;5093628;28;20062;-77
2022/03/02 03:10:45;;;;;;;7.63;4.10;;;5.00;48.00;;;;;;5093345;28;20027;-74
2022/03/02 03:13:12;;;;;;;6.82;3.78;;;5.00;48.10;;;;;;5094365;28;20489;-80
2022/03/02 03:15:39;;;;;;;6.10;3.88;;;5.00;48.20;;;;;;5094353;28;20050;-76
2022/03/02 03:18:06;;;;;;;6.20;3.80;;;5.00;48.10;;;;;;5092820;28;20485;-77
2022/03/02 03:20:33;;;;;;;9.52;4.32;;;5.00;48.90;;;;;;5094203;28;20024;-72
2022/03/02 03:23:01;;;;;;;7.68;4.20;;;5.00;48.40;;;;;;5094293;28;20020;-80
2022/03/02 03:25:32;;;;;;;7.53;3.80;;;5.00;48.30;;;;;;5093740;28;20497;-81
2022/03/02 03:27:58;;;;;;;6.47;4.13;;;4.90;48.30;;;;;;5093986;28;20059;-80
2022/03/02 03:30:26;;;;;;;6.60;3.90;;;4.90;48.20;;;;;;5094015;28;20469;-71
2022/03/02 03:32:52;;;;;;;9.43;4.45;;;4.90;48.30;;;;;;5092638;28;20093;-75
2022/03/02 03:35:21;;;;;;;7.32;3.83;;;4.80;48.50;;;;;;5092490;28;20028;-81
2022/03/02 03:37:47;;;;;;;6.57;4.07;;;4.80;48.40;;;;;;5093675;28;20057;-78
2022/03/02 03:40:25;;;;;;;6.88;3.88;;;4.70;48.40;;;;;;5092249;28;20078;-70
2022/03/02 03:42:54;;;;;;;6.45;3.88;;;4.70;48.40;;;;;;5094734;28;20429;-69
2022/03/02 03:45:21;;;;;;;7.93;4.53;;;4.70;48.80;;;;;;5092971;28;20032;-72
2022/03/02 03:47:49;;;;;;;7.28;4.13;;;4.70;49.20;;;;;;5094521;28;20035;-79
2022/03/02 03:50:15;;;;;;;7.70;4.03;;;4.70;49.20;;;;;;5093929;28;20055;-72
2022/03/02 03:52:45;;;;;;;6.95;3.83;;;4.70;48.60;;;;;;5094042;28;20111;-79
2022/03/02 03:55:12;;;;;;;6.65;4.03;;;4.70;49.30;;;;;;5092805;28;20060;-68
2022/03/02 03:57:40;;;;;;;12.07;4.18;;;4.70;48.50;;;;;;5096120;28;20024;-75
2022/03/02 04:00:09;;;;;;;7.47;4.03;;;4.70;48.80;;;;;;5094810;28;20048;-68
2022/03/02 04:02:35;;;;;;;7.85;3.90;;;4.70;48.70;;;;;;5097876;28;20030;-64
2022/03/02 04:05:03;;;;;;;9.88;4.57;;;4.70;48.80;;;;;;5096435;28;20032;-74
2022/03/02 04:07:31;;;;;;;9.20;3.83;;;4.70;49.10;;;;;;5093222;28;20396;-73
2022/03/02 04:09:58;;;;;;;7.47;4.00;;;4.70;50.00;;;;;;5093230;28;20024;-79
2022/03/02 04:12:23;;;;;;;5.93;4.10;;;4.80;49.30;;;;;;5096003;28;20043;-77
2022/03/02 04:14:49;;;;;;;11.25;4.68;;;4.80;49.00;;;;;;5093515;28;20027;-74
2022/03/02 04:17:15;;;;;;;8.70;4.10;;;4.70;49.10;;;;;;5096306;28;20028;-69
2022/03/02 04:19:41;;;;;;;6.90;4.30;;;4.80;48.90;;;;;;5094382;28;20063;-78
2022/03/02 04:22:07;;;;;;;7.22;4.15;;;4.80;49.20;;;;;;5094165;28;20078;-73
2022/03/02 04:24:33;;;;;;;10.23;4.57;;;4.80;49.10;;;;;;5093057;28;20025;-70
2022/03/02 04:26:59;;;;;;;7.25;3.78;;;4.70;48.70;;;;;;5093018;28;20043;-63
2022/03/02 04:29:26;;;;;;;7.47;4.43;;;4.80;48.90;;;;;;5092623;28;20093;-69
2022/03/02 04:31:51;;;;;;;8.15;5.00;;;4.80;48.90;;;;;;5093091;28;20392;-72
2022/03/02 04:34:17;;;;;;;11.68;4.20;;;4.80;48.90;;;;;;5092995;28;20115;-66
2022/03/02 04:36:44;;;;;;;7.15;3.92;;;4.80;48.90;;;;;;5099635;28;20035;-68
2022/03/02 04:39:11;;;;;;;13.68;4.40;;;4.70;49.60;;;;;;5105490;28;20024;-66
2022/03/02 04:41:38;;;;;;;8.13;4.55;;;4.70;49.60;;;;;;5100927;28;20036;-77
2022/03/02 04:44:06;;;;;;;7.05;4.97;;;4.70;49.90;;;;;;5094857;28;20437;-73
2022/03/02 04:46:33;;;;;;;7.18;3.95;;;4.70;50.00;;;;;;5093610;28;20027;-67
2022/03/02 04:49:12;;;;;;;8.13;4.22;;;4.80;49.30;;;;;;5094558;28;20077;-64
2022/03/02 04:51:38;;;;;;;9.27;4.65;;;4.70;49.10;;;;;;5095676;28;20440;-69
2022/03/02 04:54:05;;;;;;;12.88;5.28;;;4.80;49.30;;;;;;5096618;28;20027;-68
2022/03/02 04:56:33;;;;;;;8.40;4.55;;;4.80;49.00;;;;;;5096876;28;20028;-70
2022/03/02 04:59:01;;;;;;;9.77;4.57;;;4.80;50.30;;;;;;5096563;28;20486;-64
2022/03/02 05:01:29;;;;;;;10.23;5.65;;;4.80;49.20;;;;;;5096598;28;20393;-65
2022/03/02 05:03:54;;;;;;;8.48;5.25;;;4.80;49.30;;;;;;5096550;28;20476;-73
2022/03/02 05:06:22;;;;;;;9.73;5.03;;;4.70;49.30;;;;;;5096553;28;20043;-72
2022/03/02 05:08:52;;;;;;;8.63;4.50;;;4.70;50.50;;;;;;5095812;28;20046;-64
2022/03/02 05:11:22;;;;;;;7.72;4.50;;;4.60;50.80;;;;;;5097896;28;20056;-65
2022/03/02 05:13:47;;;;;;;8.38;4.43;;;4.60;50.20;;;;;;5097313;28;20020;-66
2022/03/02 05:16:14;;;;;;;8.52;4.57;;;4.60;50.20;;;;;;5096759;28;20051;-71
2022/03/02 05:18:44;;;;;;;9.32;4.78;;;4.60;50.50;;;;;;5095985;28;20099;-65
2022/03/02 05:21:11;;;;;;;7.70;4.38;;;4.50;50.40;;;;;;5095562;28;20036;-65
2022/03/02 05:23:36;;;;;;;9.45;5.30;;;4.50;50.60;;;;;;5095849;28;20044;-69
2022/03/02 05:26:05;;;;;;;8.82;4.65;;;4.40;50.60;;;;;;5095641;28;20036;-64
2022/03/02 05:28:32;;;;;;;9.93;5.22;;;4.40;51.90;;;;;;5095696;28;20102;-66
2022/03/02 05:30:58;;;;;;;10.63;5.25;;;4.40;51.10;;;;;;5095841;28;20028;-63
2022/03/02 05:33:30;;;;;;;9.20;4.63;;;4.30;51.40;;;;;;5095743;28;20101;-64
2022/03/02 05:35:55;;;;;;;8.20;4.53;;;4.40;51.10;;;;;;5095700;28;20025;-64
2022/03/02 05:38:21;;;;;;;7.90;4.93;;;4.40;51.00;;;;;;5095415;28;20059;-73
2022/03/02 05:41:04;;;;;;;9.52;4.95;;;4.50;51.20;;;;;;5095651;28;20039;-70
2022/03/02 05:43:30;;;;;;;8.38;4.93;;;4.50;51.20;;;;;;5095628;28;20541;-66
2022/03/02 05:45:56;;;;;;;10.25;5.32;;;4.50;51.70;;;;;;5095414;28;20036;-65
2022/03/02 05:48:21;;;;;;;10.30;4.75;;;4.50;51.40;;;;;;5093966;28;20055;-73
2022/03/02 05:50:47;;;;;;;7.85;4.60;;;4.50;51.10;;;;;;5095298;28;20385;-65
2022/03/02 05:53:14;;;;;;;9.30;5.10;;;4.40;51.40;;;;;;5094128;28;20036;-66
2022/03/02 05:55:40;;;;;;;7.70;4.78;;;4.40;52.20;;;;;;5095413;28;20111;-66
2022/03/02 05:58:08;;;;;;;8.85;5.18;;;4.40;51.40;;;;;;5095529;28;20134;-63
2022/03/02 06:00:34;;;;;;;11.40;5.13;;;4.40;52.20;;;;;;5093665;28;20504;-71
2022/03/02 06:03:00;;;;;;;9.55;4.60;;;4.40;51.70;;;;;;5095020;28;20040;-71
2022/03/02 06:05:29;;;;;;;13.65;5.18;;;4.40;51.70;;;;;;5094884;28;20445;-68
2022/03/02 06:07:56;;;;;;;11.00;5.50;;;4.40;52.10;;;;;;5093897;28;20518;-70
2022/03/02 06:10:23;;;;;;;9.48;5.30;;;4.40;52.40;;;;;;5095193;28;20028;-66
2022/03/02 06:12:50;;;;;;;9.77;5.65;;;4.40;52.20;;;;;;5093791;28;20431;-66
2022/03/02 06:15:16;;;;;;;9.95;5.50;;;4.50;51.80;;;;;;5093469;28;20123;-65
2022/03/02 06:17:43;;;;;;;10.30;5.13;;;4.40;52.10;;;;;;5076591;28;20524;-64
2022/03/02 06:20:31;;;;;;;9.38;5.60;;;4.40;53.00;;;;;;5077490;28;20032;-66
2022/03/02 06:22:59;;;;;;;11.18;5.10;;;4.40;52.00;;;;;;5094621;28;20020;-63
2022/03/02 06:25:26;;;;;;;12.68;5.30;;;4.40;52.20;;;;;;5094763;28;20039;-63
2022/03/02 06:27:52;;;;;;;8.00;5.00;;;4.30;52.10;;;;;;5094682;28;20036;-63
2022/03/02 06:30:20;;;;;;;9.95;5.15;;;4.40;52.40;;;;;;5094942;28;20380;-64
2022/03/02 06:32:45;;;;;;;9.38;5.30;;;4.40;52.70;;;;;;5094648;28;20028;-64
2022/03/02 06:35:12;;;;;;;11.70;5.43;;;4.50;52.20;;;;;;5094824;28;20099;-67
2022/03/02 06:37:38;;;;;;;8.18;5.05;;;4.60;52.30;;;;;;5094885;28;20036;-68
2022/03/02 06:40:13;;;;;;;10.55;5.15;;;4.70;52.10;;;;;;5094612;28;20057;-73
2022/03/02 06:43:00;;;;;;;13.07;5.70;;;4.70;52.20;;;;;;5094273;28;20032;-64
2022/03/02 06:46:20;;;;;;;10.77;5.07;;;4.90;52.40;;;;;;5094488;28;20031;-66
2022/03/02 06:48:52;;;;;;;11.50;5.15;;;5.00;52.20;;;;;;5031882;28;20038;-73
2022/03/02 06:51:26;;;;;;;8.82;5.32;;;5.10;51.90;;;;;;5083541;28;20038;-72
2022/03/02 06:53:53;;;;;;;10.57;5.80;;;5.30;51.10;;;;;;5094087;28;20035;-70
2022/03/02 06:56:21;;;;;;;10.25;5.57;;;5.40;50.70;;;;;;5093203;28;20032;-71
2022/03/02 06:58:56;;;;;;;11.48;6.00;;;5.60;50.50;;;;;;5092698;28;20050;-70
2022/03/02 07:01:35;;;;;;;13.15;5.50;;;5.80;51.80;;;;;;5093863;28;20073;-69
2022/03/02 07:04:01;;;;;;;10.30;5.68;;;6.00;51.40;;;;;;5094226;28;20073;-67
2022/03/02 07:06:29;;;;;;;17.15;6.30;;;6.10;49.70;;;;;;5093629;28;20040;-68
2022/03/02 07:08:56;;;;;;;10.43;5.38;;;6.20;49.60;;;;;;5092818;28;20101;-71
2022/03/02 07:11:23;;;;;;;9.85;5.10;;;6.40;49.60;;;;;;5093350;28;20028;-71
2022/03/02 07:13:50;;;;;;;10.82;5.22;;;6.50;49.40;;;;;;5093774;28;20028;-65
2022/03/02 07:16:17;;;;;;;12.70;5.18;;;6.60;49.30;;;;;;5093617;28;20358;-67
2022/03/02 07:18:44;;;;;;;10.95;5.57;;;6.60;49.20;;;;;;5093439;28;20022;-69
2022/03/02 07:21:13;;;;;;;10.25;5.47;;;6.70;49.10;;;;;;5091399;28;20039;-74
2022/03/02 07:23:59;;;;;;;12.63;5.95;;;6.80;49.10;;;;;;5075518;28;20028;-70
2022/03/02 07:26:29;;;;;;;12.43;6.30;;;7.00;49.50;;;;;;5093576;28;20086;-69
2022/03/02 07:28:59;;;;;;;11.07;5.55;;;7.20;48.80;;;;;;5091198;28;20040;-72
2022/03/02 07:31:26;;;;;;;10.98;5.40;;;7.30;48.80;;;;;;5093285;28;20472;-76
2022/03/02 07:33:53;;;;;;;14.20;5.68;;;7.40;48.70;;;;;;5092195;28;20370;-75
2022/03/02 07:36:20;;;;;;;14.45;5.75;;;7.40;48.30;;;;;;5092859;28;20059;-69
2022/03/02 07:38:47;;;;;;;10.43;5.13;;;7.50;48.40;;;;;;5093160;28;20024;-68
2022/03/02 07:41:13;;;;;;;11.32;5.15;;;7.60;48.20;;;;;;5093278;28;20048;-66
2022/03/02 07:43:40;;;;;;;8.60;5.10;;;7.60;48.00;;;;;;5093261;28;20039;-66
2022/03/02 07:46:09;;;;;;;8.52;5.22;;;7.70;47.90;;;;;;5091903;28;20032;-66
2022/03/02 07:48:37;;;;;;;8.93;5.13;;;7.80;47.80;;;;;;5092028;28;20028;-65
2022/03/02 07:51:06;;;;;;;9.60;4.82;;;7.90;47.50;;;;;;5093187;28;20031;-69
2022/03/02 07:53:37;;;;;;;10.10;5.30;;;7.90;47.40;;;;;;5092966;28;20476;-69
2022/03/02 07:56:04;;;;;;;7.00;4.47;;;7.90;46.60;;;;;;5093001;28;20486;-70
2022/03/02 07:58:30;;;;;;;10.57;5.10;;;7.90;46.50;;;;;;5092092;28;20564;-67
2022/03/02 08:01:03;;;;;;;12.13;4.93;;;7.90;46.50;;;;;;5075365;28;20103;-68
2022/03/02 08:03:30;;;;;;;10.93;5.50;;;7.80;46.70;;;;;;5092818;28;20522;-70
2022/03/02 08:05:59;;;;;;;10.50;5.50;;;8.00;47.10;;;;;;5092738;28;20027;-73
2022/03/02 08:08:25;;;;;;;11.95;5.40;;;8.10;46.80;;;;;;5092353;28;20048;-68
2022/03/02 08:10:52;;;;;;;7.85;4.80;;;8.10;46.10;;;;;;5093002;28;20027;-65
2022/03/02 08:13:18;;;;;;;9.50;5.18;;;8.10;46.00;;;;;;5093144;28;20028;-69
2022/03/02 08:15:44;;;;;;;9.82;4.97;;;8.00;45.90;;;;;;5091733;28;20059;-68
2022/03/02 08:18:10;;;;;;;11.98;5.63;;;8.10;46.10;;;;;;5093263;28;20358;-71
2022/03/02 08:20:43;;;;;;;8.55;4.82;;;8.00;45.70;;;;;;5093817;28;20036;-70
2022/03/02 08:23:10;;;;;;;11.90;5.05;;;8.10;46.30;;;;;;5095342;28;20217;-72
2022/03/02 08:25:37;;;;;;;7.43;5.00;;;8.10;46.30;;;;;;5096745;28;20036;-67
2022/03/02 08:28:09;;;;;;;8.35;4.80;;;8.10;46.00;;;;;;5096974;28;20043;-69
2022/03/02 08:30:37;;;;;;;9.95;4.85;;;8.20;46.00;;;;;;5097825;28;20024;-66
2022/03/02 08:33:04;;;;;;;7.53;5.15;;;8.10;45.70;;;;;;5096914;28;20353;-68
2022/03/02 08:35:35;;;;;;;10.63;5.10;;;8.00;45.80;;;;;;5096968;28;20024;-69
2022/03/02 08:38:02;;;;;;;9.98;4.97;;;8.00;46.00;;;;;;5098344;28;20428;-76
2022/03/02 08:40:28;;;;;;;11.45;5.70;;;8.00;46.30;;;;;;5098782;28;20024;-65
2022/03/02 08:42:57;;;;;;;11.43;4.43;;;8.10;46.40;;;;;;5094889;28;20020;-66
2022/03/02 08:45:23;;;;;;;11.13;4.32;;;8.10;45.90;;;;;;5096338;28;20513;-66
2022/03/02 08:47:49;;;;;;;12.65;4.70;;;8.10;46.10;;;;;;5096176;28;20024;-66
2022/03/02 08:50:15;;;;;;;7.93;4.32;;;8.20;45.80;;;;;;5096099;28;20350;-66
2022/03/02 08:52:41;;;;;;;9.48;4.68;;;8.30;45.80;;;;;;5096180;28;20035;-66
2022/03/02 08:55:10;;;;;;;8.80;4.20;;;8.40;45.50;;;;;;5096153;28;20040;-67
2022/03/02 08:57:41;;;;;;;9.10;4.20;;;8.50;45.30;;;;;;5096154;28;20020;-67
2022/03/02 09:00:08;;;;;;;12.60;4.47;;;8.50;45.20;;;;;;5095952;28;20016;-66
2022/03/02 09:02:36;;;;;;;6.40;3.55;;;8.50;43.80;;;;;;5095635;28;20604;-67
2022/03/02 09:05:04;;;;;;;11.43;4.25;;;8.50;44.10;;;;;;5095965;28;20031;-68
2022/03/02 09:07:30;;;;;;;7.97;4.35;;;8.50;43.90;;;;;;5095439;28;20066;-68
2022/03/02 09:09:58;;;;;;;7.38;4.55;;;8.60;43.70;;;;;;5095860;28;20518;-65
2022/03/02 09:12:24;;;;;;;8.05;4.00;;;8.60;43.90;;;;;;5095888;28;20028;-67
2022/03/02 09:14:50;;;;;;;7.72;3.70;;;8.70;43.20;;;;;;5095823;28;20134;-67
2022/03/02 09:17:18;;;;;;;7.43;3.80;;;8.60;42.40;;;;;;5094556;28;20020;-75
2022/03/02 09:19:45;;;;;;;7.72;3.90;;;8.70;42.60;;;;;;5095568;28;20016;-66
2022/03/02 09:22:11;;;;;;;7.32;3.60;;;8.80;44.50;;;;;;5095654;28;20028;-66
2022/03/02 09:24:39;;;;;;;8.88;4.00;;;8.90;43.10;;;;;;5095443;28;20028;-67
2022/03/02 09:27:08;;;;;;;6.68;3.63;;;8.90;42.00;;;;;;5095215;28;20427;-66
2022/03/02 09:29:38;;;;;;;8.88;3.88;;;9.00;42.90;;;;;;5093827;28;20056;-67
2022/03/02 09:32:04;;;;;;;6.97;3.97;;;9.00;41.50;;;;;;5093882;28;20426;-65
2022/03/02 09:34:30;;;;;;;9.40;3.90;;;9.00;41.80;;;;;;5094634;28;20024;-66
2022/03/02 09:36:58;;;;;;;8.38;4.00;;;9.00;41.50;;;;;;5095272;28;20074;-66
2022/03/02 09:39:24;;;;;;;8.82;3.90;;;9.00;41.00;;;;;;5093955;28;20028;-68
2022/03/02 09:42:09;;;;;;;8.07;3.95;;;9.10;41.60;;;;;;5095357;28;20029;-66
2022/03/02 09:44:41;;;;;;;8.10;3.55;;;9.20;42.20;;;;;;5095195;28;20016;-66
2022/03/02 09:47:18;;;;;;;6.68;3.53;;;9.20;40.30;;;;;;5094793;28;20139;-70
2022/03/02 09:49:53;;;;;;;6.13;3.10;;;9.20;40.60;;;;;;5094682;28;20035;-73
2022/03/02 09:52:20;;;;;;;9.40;3.72;;;9.30;42.70;;;;;;5094771;28;20013;-72
2022/03/02 09:54:52;;;;;;;7.10;4.05;;;9.40;40.20;;;;;;5093719;28;20089;-67
2022/03/02 09:57:20;;;;;;;8.02;3.78;;;9.40;40.00;;;;;;5095078;28;20032;-77
2022/03/02 09:59:52;;;;;;;8.38;3.90;;;9.50;39.80;;;;;;5095225;28;20073;-69
2022/03/02 10:02:43;;;;;;;10.23;4.60;;;9.60;40.20;;;;;;5095204;28;20020;-71
2022/03/02 10:05:18;;;;;;;9.85;3.58;;;9.70;40.20;;;;;;5094889;28;20070;-72
2022/03/02 10:08:07;;;;;;;7.45;3.95;;;9.80;39.80;;;;;;5094568;28;20091;-70
2022/03/02 10:10:40;;;;;;;6.85;3.60;;;9.90;41.40;;;;;;5094697;28;20116;-70
2022/03/02 10:13:11;;;;;;;6.15;3.00;;;10.00;38.20;;;;;;5093276;28;20439;-67
2022/03/02 10:15:39;;;;;;;9.20;3.78;;;10.00;38.40;;;;;;5095374;28;20497;-74
2022/03/02 10:18:08;;;;;;;6.95;3.55;;;10.10;38.50;;;;;;5094702;28;20028;-69
2022/03/02 10:20:37;;;;;;;5.20;3.00;;;10.30;38.60;;;;;;5094332;28;20380;-68
2022/03/02 10:23:24;;;;;;;6.43;3.60;;;10.30;38.30;;;;;;5093380;28;20029;-67
2022/03/02 10:26:26;;;;;;;5.60;2.78;;;10.40;38.70;;;;;;5094600;28;20034;-66
2022/03/02 10:28:59;;;;;;;7.07;3.38;;;10.50;37.90;;;;;;5011894;28;20046;-65
2022/03/02 10:31:42;;;;;;;6.20;3.35;;;10.60;38.20;;;;;;5080873;28;20093;-66
2022/03/02 10:34:29;;;;;;;7.97;3.30;;;10.70;38.40;;;;;;5094174;28;20040;-67
2022/03/02 10:37:20;;;;;;;7.78;3.20;;;10.80;37.10;;;;;;5094312;28;20065;-66
2022/03/02 10:40:09;;;;;;;7.18;3.65;;;10.80;36.20;;;;;;5092680;28;20031;-70
2022/03/02 10:42:38;;;;;;;6.32;3.13;;;10.90;36.20;;;;;;5094082;28;20024;-67
2022/03/02 10:45:07;;;;;;;7.95;3.38;;;11.00;37.30;;;;;;5094113;28;20074;-65
2022/03/02 10:47:59;;;;;;;9.38;3.40;;;11.10;36.90;;;;;;5092980;28;20069;-70
2022/03/02 10:50:27;;;;;;;8.65;3.60;;;11.20;36.10;;;;;;5055368;28;20051;-66
2022/03/02 10:52:55;;;;;;;8.98;3.47;;;11.20;36.00;;;;;;5093852;28;20759;-67
2022/03/02 10:55:22;;;;;;;6.97;3.70;;;11.40;36.10;;;;;;5093660;28;20024;-68
2022/03/02 10:57:54;;;;;;;7.15;2.92;;;11.50;35.70;;;;;;5093862;28;20027;-65
2022/03/02 11:00:22;;;;;;;7.10;3.30;;;11.60;35.30;;;;;;5093610;28;20119;-68
2022/03/02 11:02:57;;;;;;;6.40;2.97;;;11.60;35.00;;;;;;5093611;28;20405;-66
2022/03/02 11:05:24;;;;;;;8.52;3.20;;;11.70;35.80;;;;;;5093819;28;20017;-67
2022/03/02 11:07:50;;;;;;;7.57;3.17;;;11.70;35.10;;;;;;5093453;28;20563;-69
2022/03/02 11:10:20;;;;;;;7.53;3.83;;;11.70;35.10;;;;;;5093435;28;20020;-66
2022/03/02 11:12:48;;;;;;;11.00;3.80;;;11.80;35.10;;;;;;5093433;28;20032;-65
2022/03/02 11:15:14;;;;;;;7.22;3.80;;;11.80;34.80;;;;;;5093325;28;20028;-65
2022/03/02 11:17:58;;;;;;;5.65;3.40;;;11.80;34.00;;;;;;5093360;28;20028;-72
2022/03/02 11:20:27;;;;;;;6.97;3.53;;;11.90;35.00;;;;;;5093553;28;20051;-70
2022/03/02 11:23:00;;;;;;;8.07;3.90;;;11.90;34.10;;;;;;5093873;28;20023;-74
2022/03/02 11:25:47;;;;;;;7.28;3.30;;;12.00;34.20;;;;;;5092788;28;20408;-73
2022/03/02 11:28:15;;;;;;;6.20;3.45;;;12.00;34.20;;;;;;5093545;28;20035;-74
2022/03/02 11:31:00;;;;;;;7.78;3.80;;;12.10;34.20;;;;;;5093499;28;20066;-72
2022/03/02 11:33:30;;;;;;;8.52;4.22;;;12.30;33.70;;;;;;5093550;28;20020;-78
2022/03/02 11:36:01;;;;;;;7.70;3.70;;;12.50;34.70;;;;;;5092539;28;20028;-77
2022/03/02 11:38:30;;;;;;;5.68;3.05;;;12.60;34.30;;;;;;5091883;28;20024;-66
2022/03/02 11:40:56;;;;;;;9.52;3.60;;;12.70;33.20;;;;;;5093161;28;20097;-66
2022/03/02 11:43:28;;;;;;;6.35;3.35;;;12.70;32.80;;;;;;5093431;28;20421;-79
2022/03/02 11:45:58;;;;;;;5.32;2.95;;;12.90;33.40;;;;;;5093498;28;20115;-79
2022/03/02 11:48:26;;;;;;;7.53;3.35;;;13.00;33.30;;;;;;5093092;28;20020;-66
2022/03/02 11:51:07;;;;;;;7.82;3.30;;;13.00;33.10;;;;;;5092822;28;20107;-66
2022/03/02 11:53:42;;;;;;;5.28;3.20;;;13.10;32.40;;;;;;5093570;28;20016;-79
2022/03/02 11:56:12;;;;;;;4.95;2.72;;;13.10;31.90;;;;;;5093403;28;20032;-73
2022/03/02 11:58:55;;;;;;;5.88;3.40;;;13.10;31.80;;;;;;5093161;28;20062;-71
2022/03/02 12:01:27;;;;;;;9.45;3.90;;;13.20;31.90;;;;;;5092958;28;20106;-73
2022/03/02 12:03:56;;;;;;;7.55;3.20;;;13.30;32.80;;;;;;5092929;28;20020;-66
2022/03/02 12:06:21;;;;;;;12.27;3.58;;;13.30;32.90;;;;;;5092562;28;20048;-67
2022/03/02 12:08:53;;;;;;;5.82;3.30;;;13.20;32.10;;;;;;5092358;28;20055;-66
2022/03/02 12:11:34;;;;;;;4.97;2.95;;;13.30;31.80;;;;;;5092603;28;20032;-66
2022/03/02 12:14:08;;;;;;;9.48;3.40;;;13.20;31.90;;;;;;5092813;28;20491;-67
2022/03/02 12:16:38;;;;;;;6.88;3.13;;;13.30;31.90;;;;;;5092765;28;20070;-66
2022/03/02 12:19:05;;;;;;;6.47;3.42;;;13.40;32.60;;;;;;5091524;28;20021;-78
2022/03/02 12:21:30;;;;;;;6.93;3.90;;;13.50;32.00;;;;;;5091653;28;20387;-79
2022/03/02 12:23:59;;;;;;;6.07;3.03;;;13.60;32.40;;;;;;5092204;28;20032;-65
2022/03/02 12:26:25;;;;;;;6.00;2.92;;;13.60;32.00;;;;;;5092556;28;20036;-66
2022/03/02 12:28:57;;;;;;;5.35;3.20;;;13.70;32.20;;;;;;5092607;28;20100;-76
2022/03/02 12:31:31;;;;;;;11.77;3.47;;;13.70;30.40;;;;;;5092795;28;20077;-77
2022/03/02 12:34:16;;;;;;;9.02;3.90;;;13.70;32.20;;;;;;5091765;28;20492;-75
2022/03/02 12:36:43;;;;;;;5.32;3.03;;;13.70;32.40;;;;;;5092718;28;20094;-79
2022/03/02 12:39:10;;;;;;;6.90;3.58;;;13.70;32.40;;;;;;5091297;28;20032;-81
2022/03/02 12:41:37;;;;;;;7.22;3.50;;;13.80;32.40;;;;;;5092043;28;20093;-76
2022/03/02 12:44:04;;;;;;;5.68;3.47;;;13.80;32.30;;;;;;5092495;28;20024;-79
2022/03/02 12:46:31;;;;;;;10.95;3.53;;;13.90;32.00;;;;;;5092460;28;20043;-77
2022/03/02 12:48:58;;;;;;;8.48;3.63;;;13.90;32.30;;;;;;5092247;28;20055;-65
2022/03/02 12:51:27;;;;;;;8.90;3.70;;;14.00;32.30;;;;;;5092159;28;20016;-66
2022/03/02 12:53:53;;;;;;;9.18;3.80;;;14.00;32.30;;;;;;5092762;28;20028;-76
2022/03/02 12:56:19;;;;;;;6.25;3.40;;;14.10;31.90;;;;;;5092710;28;20373;-77
2022/03/02 12:58:45;;;;;;;8.88;3.75;;;14.10;32.20;;;;;;5091344;28;20067;-66
2022/03/02 13:01:11;;;;;;;8.18;3.70;;;14.20;32.60;;;;;;5091948;28;20012;-66
2022/03/02 13:03:43;;;;;;;6.97;3.72;;;14.40;33.00;;;;;;5090703;28;20028;-66